Airfield :
LOGIN :

Register | Disclaimer

   EN    FR    IT 

 










Legend :    VFR   Marginal VFR   IFR   Intensive IFR   Very Intensive IFR
Visi :
Ceiling :
>= 8 km
>= 3000ft
5 to 8 km
1000 to 3000 ft
1500m to 5 km
500 to 1000 ft
800 to 1500m
200 to 500 ft
< 800m
< 200 ft
Symbols :   Thunderstorms  Fog  Heavy snow  Heavy precipitations  Wind > 20 kt
SIGMETs :     Misc.  Thunderstorms  Icing  Turbulence  Mountain Waves  Volcanic Ashes






- Airport Elevation : 12 ft
- IATA code : BCN


LEBL - Barcelone

CURRENT METAR :
  • 180430Z 33015KT CAVOK 03/M02 Q1029 NOSIG

EXPIRED METARs :
  • 180400Z 33010KT CAVOK 03/M02 Q1029 NOSIG
  • 180330Z 33009KT CAVOK 04/M01 Q1029 NOSIG
  • 180300Z 32009KT CAVOK 04/M01 Q1029 NOSIG
  • 180230Z 33012KT CAVOK 05/M01 Q1030 NOSIG
  • 180200Z 33008KT CAVOK 05/M01 Q1030 NOSIG

TAF TAF LEBL
Valid from the 18 at 00:00 until the 19 at 00:00 UTC


172300Z 1800/1824 33008KT 9999 FEW030 TX13/1812Z TN03/1806Z
PROB40
TEMPO 1806/1810 33010G22KT
BECMG 1812/1814 05008KT
BECMG 1818/1820 33008KT



MET'MAP, your aeronautical weather chart ! - Copyright ORBIFLY December 2007 - Disclaimer

ORBIFLY MET'MAP TEAM :

Programming & Development : Alexandra Zaïnal
Concept & original design : Baudouin d'Aumeries
Assistance for programming : Marc-Olivier Méhu
Technical & hardware support : Manuel Goepfert

Contact : metmap@orbifly.com




SOURCES & CREDITS :

   NOAA